Antonio B. Won Pat International Airport
PGUM : now visible

Airfield :











YOU CAN JOIN US ON...

 
LOGIN :

Register | Disclaimer

   EN    FR    IT 

 









Legend :    VFR   Marginal VFR   IFR   Intensive IFR   Very Intensive IFR
Visi :
Ceiling :
>= 8 km
>= 3000ft
5 to 8 km
1000 to 3000 ft
1500m to 5 km
500 to 1000 ft
800 to 1500m
200 to 500 ft
< 800m
< 200 ft
Symbols :   Thunderstorms  Fog  Heavy snow  Heavy precipitations  Wind > 20 kt






- Airport Elevation : 298 ft
- IATA code : GUM


PGUM - Antonio B. Won Pat International

CURRENT METAR :
  • 202354Z 07015KT 10SM FEW028 BKN036 BKN045 28/20 A3005 RMK AO2 SLP168 T02780200 10278 20228 51014

EXPIRED METARs :
  • 202254Z 07014KT 10SM FEW025 27/21 A3004 RMK AO2 SLP165 T02720206
  • 202154Z 05008KT 10SM CLR 25/20 A3003 RMK AO2 SLP160 T02500200

TAF PGUM
Valid from the 20 at 18:00 until the 22 at 00:00 UTC


201734Z 2018/2124 06011KT P6SM FEW025 SCT060
FM210000 06014G24KT P6SM FEW025 SCT060
FM210900 06011KT P6SM VCSH FEW020 SCT050



MET'MAP, your aeronautical weather chart ! - Copyright ORBIFLY December 2007 - Disclaimer

ORBIFLY MET'MAP TEAM :

Programming & Development : Alexandra Zaïnal
Concept & original design : Baudouin d'Aumeries
Assistance for programming : Marc-Olivier Méhu
Technical & hardware support : Manuel Goepfert

Contact : metmap@orbifly.com




SOURCES & CREDITS :

   NOAA       Earth
Advisory